createdAt,value
2019-03-27T00:02:09.483Z,11.48
2019-03-27T00:04:40.762Z,11.73
2019-03-27T00:07:12.089Z,11.25
2019-03-27T00:09:43.426Z,11.85
2019-03-27T00:12:14.711Z,11.73
2019-03-27T00:14:46.643Z,12.15
2019-03-27T00:17:17.999Z,11.45
2019-03-27T00:19:49.310Z,11.50
2019-03-27T00:22:20.584Z,12.13
2019-03-27T00:24:51.850Z,11.45
2019-03-27T00:27:23.225Z,12.05
2019-03-27T00:29:54.796Z,11.03
2019-03-27T00:32:26.177Z,11.12
2019-03-27T00:34:57.429Z,11.08
2019-03-27T00:37:28.758Z,10.70
2019-03-27T00:40:00.354Z,11.38
2019-03-27T00:42:32.102Z,11.43
2019-03-27T00:45:03.533Z,11.03
2019-03-27T00:47:35.037Z,11.28
2019-03-27T00:50:06.528Z,11.43
2019-03-27T00:52:38.211Z,11.53
2019-03-27T00:55:10.369Z,12.13
2019-03-27T00:57:42.001Z,11.83
2019-03-27T01:00:25.678Z,12.83
2019-03-27T01:02:57.070Z,13.20
2019-03-27T01:05:28.606Z,13.40
2019-03-27T01:07:59.904Z,12.90
2019-03-27T01:10:31.267Z,13.43
2019-03-27T01:13:02.646Z,13.08
2019-03-27T01:15:39.811Z,12.85
2019-03-27T01:18:07.283Z,13.85
2019-03-27T01:20:39.154Z,13.78
2019-03-27T01:23:10.521Z,13.40
2019-03-27T01:25:42.125Z,13.95
2019-03-27T01:28:13.612Z,13.72
2019-03-27T01:30:44.884Z,13.50
2019-03-27T01:33:16.156Z,14.35
2019-03-27T01:35:47.494Z,13.58
2019-03-27T01:38:19.065Z,13.60
2019-03-27T01:40:50.715Z,13.83
2019-03-27T01:43:22.028Z,13.45
2019-03-27T01:45:53.575Z,13.70
2019-03-27T01:48:24.856Z,13.50
2019-03-27T01:50:56.242Z,13.85
2019-03-27T01:53:27.850Z,14.55
2019-03-27T01:55:59.390Z,15.35
2019-03-27T01:58:31.760Z,14.70
2019-03-27T02:01:03.102Z,15.50
2019-03-27T02:03:34.726Z,15.28
2019-03-27T02:06:05.999Z,15.38
2019-03-27T02:08:37.269Z,15.00
2019-03-27T02:11:08.561Z,15.23
2019-03-27T02:13:39.873Z,15.68
2019-03-27T02:16:11.507Z,16.60
2019-03-27T02:18:42.778Z,15.88
2019-03-27T02:21:15.223Z,17.52
2019-03-27T02:23:46.822Z,17.00
2019-03-27T02:26:18.170Z,16.97
2019-03-27T02:28:49.449Z,16.50
2019-03-27T02:31:20.706Z,18.40
2019-03-27T02:33:51.996Z,17.05
2019-03-27T02:36:23.417Z,17.82
2019-03-27T02:38:54.702Z,18.17
2019-03-27T02:41:26.888Z,17.55
2019-03-27T02:43:58.387Z,18.92
2019-03-27T02:46:30.185Z,18.02
2019-03-27T02:49:01.860Z,19.15
2019-03-27T02:51:33.101Z,19.92
2019-03-27T02:54:04.437Z,19.82
2019-03-27T02:56:36.024Z,20.80
2019-03-27T02:59:07.276Z,19.60
2019-03-27T03:01:38.654Z,20.05
2019-03-27T03:04:09.916Z,20.23
2019-03-27T03:06:41.199Z,20.60
2019-03-27T03:09:12.472Z,20.85
2019-03-27T03:11:43.747Z,19.75
2019-03-27T03:14:15.023Z,21.23
2019-03-27T03:16:46.398Z,20.15
2019-03-27T03:19:17.917Z,21.30
2019-03-27T03:21:49.259Z,20.35
2019-03-27T03:24:20.581Z,21.23
2019-03-27T03:26:51.960Z,21.10
2019-03-27T03:29:23.201Z,21.42
2019-03-27T03:31:54.547Z,22.55
2019-03-27T03:34:26.315Z,21.10
2019-03-27T03:36:57.615Z,21.30
2019-03-27T03:39:28.887Z,22.05
2019-03-27T03:42:00.297Z,21.90
2019-03-27T03:44:31.582Z,21.33
2019-03-27T03:47:03.238Z,22.45
2019-03-27T03:49:34.919Z,22.05
2019-03-27T03:52:06.445Z,23.12
2019-03-27T03:54:37.781Z,24.23
2019-03-27T03:57:10.331Z,24.35
2019-03-27T03:59:42.255Z,23.35
2019-03-27T04:02:16.405Z,24.92
2019-03-27T04:04:48.209Z,24.40
2019-03-27T04:07:19.760Z,24.77
2019-03-27T04:09:51.020Z,24.45
2019-03-27T04:12:22.343Z,26.10
2019-03-27T04:14:53.664Z,25.37
2019-03-27T04:17:26.313Z,25.62
2019-03-27T04:19:58.023Z,24.77
2019-03-27T04:22:29.615Z,24.85
2019-03-27T04:25:00.898Z,25.10
2019-03-27T04:27:32.171Z,25.77
2019-03-27T04:30:04.135Z,25.90
2019-03-27T04:32:35.429Z,27.25
2019-03-27T04:35:07.543Z,25.90
2019-03-27T04:37:39.748Z,26.42
2019-03-27T04:40:11.305Z,25.72
2019-03-27T04:42:42.721Z,26.68
2019-03-27T04:45:15.953Z,29.65
2019-03-27T04:47:47.228Z,30.00
2019-03-27T04:50:18.594Z,30.47
2019-03-27T04:52:50.474Z,30.08
2019-03-27T04:55:22.134Z,30.15
2019-03-27T04:57:53.726Z,31.10
2019-03-27T05:00:25.062Z,30.77
2019-03-27T05:02:56.381Z,31.00
2019-03-27T05:05:27.733Z,31.50
2019-03-27T05:07:58.989Z,29.57
2019-03-27T05:10:30.264Z,31.17
2019-03-27T05:13:01.551Z,30.92
2019-03-27T05:15:33.228Z,31.65
2019-03-27T05:18:04.507Z,30.08
2019-03-27T05:20:36.104Z,32.15
2019-03-27T05:23:07.451Z,31.57
2019-03-27T05:25:38.711Z,30.88
2019-03-27T05:28:10.069Z,30.35
2019-03-27T05:30:41.588Z,30.27
2019-03-27T05:33:13.207Z,29.57
2019-03-27T05:35:44.497Z,30.70
2019-03-27T05:38:15.783Z,31.20
2019-03-27T05:40:47.042Z,30.87
2019-03-27T05:43:18.697Z,31.42
2019-03-27T05:45:50.063Z,31.47
2019-03-27T05:48:21.370Z,31.52
2019-03-27T05:50:52.640Z,31.93
2019-03-27T05:53:23.912Z,33.13
2019-03-27T05:55:55.207Z,33.27
2019-03-27T05:58:26.554Z,33.10
2019-03-27T06:00:58.915Z,32.93
2019-03-27T06:03:30.192Z,32.50
2019-03-27T06:06:01.462Z,33.70
2019-03-27T06:08:32.764Z,33.60
2019-03-27T06:11:04.118Z,34.93
2019-03-27T06:13:35.730Z,33.78
2019-03-27T06:16:07.433Z,34.90
2019-03-27T06:18:39.647Z,33.35
2019-03-27T06:21:10.902Z,35.45
2019-03-27T06:23:42.256Z,33.05
2019-03-27T06:26:13.496Z,33.08
2019-03-27T06:28:44.761Z,34.80
2019-03-27T06:31:16.085Z,33.05
2019-03-27T06:33:47.427Z,35.73
2019-03-27T06:36:18.958Z,34.55
2019-03-27T06:38:50.229Z,35.27
2019-03-27T06:41:21.484Z,35.35
2019-03-27T06:43:52.782Z,36.20
2019-03-27T06:46:24.637Z,39.87
2019-03-27T06:48:55.943Z,37.47
2019-03-27T06:51:39.431Z,34.27
2019-03-27T06:54:00.343Z,37.23
2019-03-27T06:56:31.677Z,35.23
2019-03-27T06:59:02.967Z,35.95
2019-03-27T07:01:34.622Z,35.95
2019-03-27T07:04:10.904Z,35.03
2019-03-27T07:06:38.886Z,33.30
2019-03-27T07:09:10.523Z,33.20
2019-03-27T07:11:42.150Z,33.42
2019-03-27T07:14:13.453Z,36.20
2019-03-27T07:16:44.881Z,32.73
2019-03-27T07:19:16.433Z,35.38
2019-03-27T07:21:47.827Z,31.62
2019-03-27T07:24:19.590Z,31.90
2019-03-27T07:26:50.857Z,32.38
2019-03-27T07:29:23.082Z,37.67
2019-03-27T07:31:54.365Z,34.08
2019-03-27T07:34:25.664Z,33.55
2019-03-27T07:36:56.964Z,36.33
2019-03-27T07:39:28.251Z,35.97
2019-03-27T07:41:59.761Z,38.10
2019-03-27T07:44:31.014Z,36.42
2019-03-27T07:47:02.324Z,35.73
2019-03-27T07:49:34.374Z,30.05
2019-03-27T07:52:06.053Z,30.25
2019-03-27T07:54:37.327Z,27.67
2019-03-27T07:57:08.971Z,29.27
2019-03-27T07:59:40.287Z,30.82
2019-03-27T08:02:11.889Z,30.57
2019-03-27T08:04:43.549Z,33.30
2019-03-27T08:07:26.165Z,34.70
2019-03-27T08:09:47.968Z,32.73
2019-03-27T08:12:19.259Z,34.10
2019-03-27T08:14:50.517Z,32.48
2019-03-27T08:17:21.838Z,32.67
2019-03-27T08:19:54.197Z,31.35
2019-03-27T08:22:25.493Z,31.57
2019-03-27T08:24:56.765Z,30.97
2019-03-27T08:27:28.649Z,28.42
2019-03-27T08:29:59.921Z,22.80
2019-03-27T08:32:31.262Z,24.32
2019-03-27T08:35:02.529Z,25.68
2019-03-27T08:37:33.811Z,28.73
2019-03-27T08:40:05.805Z,29.67
2019-03-27T08:42:37.418Z,29.50
2019-03-27T08:45:09.327Z,29.93
2019-03-27T08:47:40.597Z,30.15
2019-03-27T08:50:13.149Z,29.30
2019-03-27T08:52:44.491Z,25.92
2019-03-27T08:55:15.829Z,18.67
2019-03-27T08:57:47.389Z,15.43
2019-03-27T09:00:23.817Z,17.67
2019-03-27T09:02:55.101Z,23.05
2019-03-27T09:05:26.378Z,21.65
2019-03-27T09:07:57.937Z,21.70
2019-03-27T09:10:29.489Z,22.87
2019-03-27T09:13:01.117Z,22.90
2019-03-27T09:15:32.658Z,21.90
2019-03-27T09:18:04.913Z,20.48
2019-03-27T09:20:36.369Z,19.57
2019-03-27T09:23:08.265Z,18.77
2019-03-27T09:25:39.539Z,17.85
2019-03-27T09:28:11.900Z,19.27
2019-03-27T09:30:43.555Z,16.90
2019-03-27T09:33:15.365Z,16.80
2019-03-27T09:35:47.129Z,18.37
2019-03-27T09:38:18.451Z,17.60
2019-03-27T09:40:49.719Z,16.42
2019-03-27T09:43:21.145Z,18.07
2019-03-27T09:45:52.417Z,18.00
2019-03-27T09:48:23.885Z,14.77
2019-03-27T09:50:55.148Z,16.40
2019-03-27T09:53:26.529Z,12.93
2019-03-27T09:55:57.830Z,13.13
2019-03-27T09:58:29.128Z,10.75
2019-03-27T10:01:02.909Z,9.47
2019-03-27T10:03:34.497Z,9.78
2019-03-27T10:06:05.927Z,10.17
2019-03-27T10:08:37.334Z,10.32
2019-03-27T10:11:08.938Z,10.15
2019-03-27T10:13:40.299Z,10.17
2019-03-27T10:16:11.569Z,9.53
2019-03-27T10:18:42.853Z,9.43
2019-03-27T10:21:14.137Z,10.23
2019-03-27T10:23:45.445Z,11.10
2019-03-27T10:26:17.502Z,11.60
2019-03-27T10:28:49.166Z,11.75
2019-03-27T10:31:21.528Z,11.40
2019-03-27T10:33:53.189Z,11.57
2019-03-27T10:36:24.465Z,10.37
2019-03-27T10:38:55.802Z,10.10
2019-03-27T10:41:28.136Z,9.68
2019-03-27T10:43:59.412Z,8.05
2019-03-27T10:46:30.660Z,7.42
2019-03-27T10:49:01.926Z,7.47
2019-03-27T10:51:33.264Z,7.60
2019-03-27T10:54:04.693Z,7.40
2019-03-27T10:56:35.950Z,8.03
2019-03-27T10:59:07.219Z,7.17
2019-03-27T11:01:39.477Z,7.35
2019-03-27T11:04:10.770Z,6.90
2019-03-27T11:06:42.015Z,5.60
2019-03-27T11:09:13.706Z,5.87
2019-03-27T11:11:44.950Z,5.78
2019-03-27T11:14:16.240Z,4.60
2019-03-27T11:16:47.473Z,5.37
2019-03-27T11:19:18.726Z,5.62
2019-03-27T11:21:50.375Z,6.15
2019-03-27T11:24:21.647Z,5.97
2019-03-27T11:26:52.893Z,5.97
2019-03-27T11:29:24.494Z,5.50
2019-03-27T11:31:55.756Z,5.70
2019-03-27T11:34:27.038Z,5.50
2019-03-27T11:36:58.626Z,6.05
2019-03-27T11:39:30.190Z,6.12
2019-03-27T11:42:01.503Z,6.47
2019-03-27T11:44:32.780Z,5.75
2019-03-27T11:47:04.206Z,5.75
2019-03-27T11:49:35.758Z,6.17
2019-03-27T11:52:07.978Z,6.40
2019-03-27T11:54:39.527Z,5.75
2019-03-27T11:57:10.831Z,5.50
2019-03-27T11:59:53.162Z,6.00
2019-03-27T12:02:15.736Z,6.45
2019-03-27T12:04:46.974Z,6.47
2019-03-27T12:07:18.598Z,6.80
2019-03-27T12:09:50.064Z,6.40
2019-03-27T12:12:21.297Z,6.50
2019-03-27T12:14:52.525Z,6.17
2019-03-27T12:17:24.109Z,6.70
2019-03-27T12:19:55.471Z,6.33
2019-03-27T12:22:26.722Z,6.25
2019-03-27T12:24:57.978Z,6.65
2019-03-27T12:27:29.235Z,6.50
2019-03-27T12:30:00.567Z,5.77
2019-03-27T12:32:33.968Z,6.00
2019-03-27T12:35:05.477Z,5.75
2019-03-27T12:37:37.330Z,5.75
2019-03-27T12:40:12.018Z,5.58
2019-03-27T12:42:41.642Z,7.00
2019-03-27T12:45:13.333Z,6.60
2019-03-27T12:47:44.862Z,8.40
2019-03-27T12:50:16.317Z,8.37
2019-03-27T12:52:47.578Z,7.28
2019-03-27T12:55:19.148Z,7.25
2019-03-27T12:57:51.401Z,5.97
2019-03-27T13:00:22.810Z,6.25
2019-03-27T13:02:54.137Z,5.83
2019-03-27T13:05:25.738Z,6.00
2019-03-27T13:07:57.372Z,5.80
2019-03-27T13:10:28.627Z,6.00
2019-03-27T13:12:59.972Z,5.58
2019-03-27T13:15:31.537Z,5.33
2019-03-27T13:18:02.863Z,5.92
2019-03-27T13:20:34.412Z,6.17
2019-03-27T13:23:06.918Z,6.12
2019-03-27T13:25:38.252Z,5.90
2019-03-27T13:28:09.797Z,6.08
2019-03-27T13:30:41.197Z,5.87
2019-03-27T13:33:12.937Z,5.87
2019-03-27T13:35:44.262Z,5.83
2019-03-27T13:38:15.773Z,5.78
2019-03-27T13:40:47.044Z,5.70
2019-03-27T13:43:18.378Z,6.05
2019-03-27T13:45:49.649Z,5.45
2019-03-27T13:48:20.898Z,5.83
2019-03-27T13:50:52.149Z,5.90
2019-03-27T13:53:23.473Z,5.90
2019-03-27T13:55:54.736Z,5.75
2019-03-27T13:58:25.996Z,5.78
2019-03-27T14:00:57.357Z,6.25
2019-03-27T14:03:28.599Z,7.45
2019-03-27T14:05:59.882Z,8.20
2019-03-27T14:08:31.146Z,8.93
2019-03-27T14:11:02.382Z,8.78
2019-03-27T14:13:33.909Z,13.13
2019-03-27T14:16:06.385Z,10.28
2019-03-27T14:18:37.624Z,7.97
2019-03-27T14:21:09.086Z,7.17
2019-03-27T14:23:40.451Z,7.10
2019-03-27T14:26:11.707Z,10.40
2019-03-27T14:28:43.275Z,9.97
2019-03-27T14:31:14.657Z,8.80
2019-03-27T14:33:45.923Z,8.00
2019-03-27T14:36:17.530Z,7.25
2019-03-27T14:38:49.033Z,7.15
2019-03-27T14:41:20.673Z,6.42
2019-03-27T14:43:51.950Z,7.12
2019-03-27T14:46:23.179Z,6.62
2019-03-27T14:48:54.401Z,6.83
2019-03-27T14:51:25.647Z,7.85
2019-03-27T14:53:56.953Z,7.50
2019-03-27T14:56:28.263Z,7.50
2019-03-27T14:59:00.516Z,9.38
2019-03-27T15:01:31.793Z,9.93
2019-03-27T15:04:03.105Z,9.75
2019-03-27T15:06:34.687Z,9.80
2019-03-27T15:09:07.519Z,10.70
2019-03-27T15:11:38.805Z,9.73
2019-03-27T15:14:10.062Z,9.83
2019-03-27T15:16:41.341Z,10.75
2019-03-27T15:19:13.161Z,11.25
2019-03-27T15:21:45.404Z,12.25
2019-03-27T15:24:16.773Z,13.80
2019-03-27T15:26:48.037Z,12.20
2019-03-27T15:29:19.294Z,12.27
2019-03-27T15:31:51.054Z,11.88
2019-03-27T15:34:22.331Z,11.97
2019-03-27T15:36:53.652Z,12.00
2019-03-27T15:39:25.165Z,10.70
2019-03-27T15:41:56.478Z,11.63
2019-03-27T15:44:27.775Z,9.03
2019-03-27T15:46:59.083Z,8.95
2019-03-27T15:49:30.375Z,9.00
2019-03-27T15:52:02.019Z,8.70
2019-03-27T15:54:33.266Z,8.23
2019-03-27T15:57:04.926Z,9.23
2019-03-27T15:59:36.239Z,12.18
2019-03-27T16:02:08.273Z,11.00
2019-03-27T16:04:41.653Z,10.93
2019-03-27T16:07:13.836Z,9.58
2019-03-27T16:09:45.074Z,9.70
2019-03-27T16:12:16.830Z,8.10
2019-03-27T16:14:49.137Z,8.05
2019-03-27T16:17:20.946Z,8.03
2019-03-27T16:19:52.201Z,7.37
2019-03-27T16:22:23.883Z,8.18
2019-03-27T16:24:55.154Z,9.43
2019-03-27T16:27:26.937Z,10.58
2019-03-27T16:29:58.397Z,9.78
2019-03-27T16:32:29.641Z,9.38
2019-03-27T16:35:00.906Z,9.00
2019-03-27T16:37:32.387Z,8.23
2019-03-27T16:40:04.645Z,8.20
2019-03-27T16:42:36.290Z,8.53
2019-03-27T16:45:09.107Z,8.27
2019-03-27T16:47:40.441Z,9.25
2019-03-27T16:50:12.378Z,8.70
2019-03-27T16:52:43.995Z,8.97
2019-03-27T16:55:15.635Z,10.80
2019-03-27T16:57:47.283Z,8.83
2019-03-27T17:00:19.653Z,8.30
2019-03-27T17:02:51.488Z,7.10
2019-03-27T17:05:22.810Z,7.10
2019-03-27T17:07:54.091Z,6.22
2019-03-27T17:10:25.463Z,6.50
2019-03-27T17:12:57.045Z,7.10
2019-03-27T17:15:28.525Z,7.83
2019-03-27T17:17:59.822Z,7.30
2019-03-27T17:20:31.581Z,6.55
2019-03-27T17:23:17.039Z,6.80
2019-03-27T17:25:36.451Z,7.00
2019-03-27T17:28:07.789Z,6.73
2019-03-27T17:30:39.409Z,6.75
2019-03-27T17:33:11.592Z,7.30
2019-03-27T17:35:42.986Z,7.43
2019-03-27T17:38:14.332Z,7.90
2019-03-27T17:40:45.781Z,8.10
2019-03-27T17:43:17.451Z,7.87
2019-03-27T17:45:48.821Z,8.05
2019-03-27T17:48:20.075Z,7.05
2019-03-27T17:50:52.368Z,7.27
2019-03-27T17:53:31.499Z,7.30
2019-03-27T17:55:56.614Z,7.25
2019-03-27T17:58:27.895Z,7.67
2019-03-27T18:01:03.098Z,7.40
2019-03-27T18:03:34.423Z,7.62
2019-03-27T18:06:05.741Z,7.70
2019-03-27T18:08:37.132Z,7.42
2019-03-27T18:11:08.380Z,7.15
2019-03-27T18:13:39.656Z,7.20
2019-03-27T18:16:10.905Z,7.20
2019-03-27T18:18:42.192Z,7.35
2019-03-27T18:21:14.689Z,7.50
2019-03-27T18:23:46.794Z,7.20
2019-03-27T18:26:18.242Z,7.50
2019-03-27T18:28:49.511Z,7.55
2019-03-27T18:31:21.858Z,7.72
2019-03-27T18:33:53.290Z,7.78
2019-03-27T18:36:24.646Z,7.83
2019-03-27T18:38:55.920Z,8.17
2019-03-27T18:41:27.174Z,8.73
2019-03-27T18:43:58.487Z,8.00
2019-03-27T18:46:30.126Z,8.13
2019-03-27T18:49:01.402Z,7.95
2019-03-27T18:51:32.741Z,8.00
2019-03-27T18:54:05.219Z,8.13
2019-03-27T18:56:36.880Z,7.97
2019-03-27T18:59:08.125Z,8.47
2019-03-27T19:01:39.553Z,8.18
2019-03-27T19:04:10.823Z,8.45
2019-03-27T19:06:42.564Z,8.73
2019-03-27T19:09:14.041Z,8.80
2019-03-27T19:11:45.435Z,9.20
2019-03-27T19:14:16.751Z,9.00
2019-03-27T19:16:48.159Z,9.10
2019-03-27T19:19:19.419Z,9.05
2019-03-27T19:21:50.930Z,9.35
2019-03-27T19:26:10.291Z,9.20
2019-03-27T19:28:41.924Z,8.73
2019-03-27T19:31:13.249Z,8.75
2019-03-27T19:33:44.522Z,9.25
2019-03-27T19:36:16.084Z,9.28
2019-03-27T19:38:47.518Z,9.10
2019-03-27T19:41:19.253Z,9.25
2019-03-27T19:43:50.542Z,9.00
2019-03-27T19:46:21.906Z,8.98
2019-03-27T19:48:53.162Z,9.08
2019-03-27T19:51:24.410Z,8.68
2019-03-27T19:53:55.799Z,8.90
2019-03-27T19:56:27.158Z,9.40
2019-03-27T19:58:58.406Z,9.20
2019-03-27T20:01:29.797Z,9.70
2019-03-27T20:04:01.288Z,9.55
2019-03-27T20:06:33.522Z,9.03
2019-03-27T20:09:07.350Z,9.40
2019-03-27T20:11:39.620Z,9.28
2019-03-27T20:14:11.405Z,9.85
2019-03-27T20:16:43.780Z,10.17
2019-03-27T20:19:15.453Z,10.93
2019-03-27T20:21:47.688Z,10.23
2019-03-27T20:24:18.944Z,10.72
2019-03-27T20:26:50.314Z,9.98
2019-03-27T20:29:21.665Z,10.05
2019-03-27T20:31:52.933Z,10.68
2019-03-27T20:34:24.205Z,9.95
2019-03-27T20:36:55.571Z,10.20
2019-03-27T20:39:27.145Z,11.18
2019-03-27T20:41:58.465Z,10.90
2019-03-27T20:44:29.995Z,11.25
2019-03-27T20:47:01.281Z,10.30
2019-03-27T20:49:32.688Z,11.07
2019-03-27T20:52:04.029Z,11.00
2019-03-27T20:54:35.378Z,11.28
2019-03-27T20:57:06.701Z,10.80
2019-03-27T20:59:37.969Z,11.08
2019-03-27T21:02:09.574Z,11.20
2019-03-27T21:04:41.444Z,11.03
2019-03-27T21:07:12.737Z,11.38
2019-03-27T21:09:44.080Z,11.50
2019-03-27T21:12:15.688Z,11.45
2019-03-27T21:14:46.947Z,11.95
2019-03-27T21:17:18.522Z,11.90
2019-03-27T21:19:50.132Z,12.33
2019-03-27T21:22:21.480Z,12.77
2019-03-27T21:24:53.059Z,12.33
2019-03-27T21:27:24.339Z,12.78
2019-03-27T21:29:57.058Z,12.13
2019-03-27T21:32:28.294Z,12.37
2019-03-27T21:34:59.620Z,12.43
2019-03-27T21:37:49.862Z,12.50
2019-03-27T21:40:21.197Z,12.33
2019-03-27T21:42:52.502Z,12.98
2019-03-27T21:45:24.216Z,12.20
2019-03-27T21:47:55.857Z,13.38
2019-03-27T21:50:27.194Z,13.20
2019-03-27T21:53:00.884Z,13.58
2019-03-27T21:55:42.123Z,13.30
2019-03-27T21:58:04.711Z,13.88
2019-03-27T22:00:38.404Z,13.22
2019-03-27T22:03:10.046Z,13.98
2019-03-27T22:05:41.485Z,14.13
2019-03-27T22:08:12.980Z,13.38
2019-03-27T22:10:44.281Z,13.83
2019-03-27T22:13:17.357Z,13.70
2019-03-27T22:15:48.659Z,13.78
2019-03-27T22:18:19.951Z,14.23
2019-03-27T22:20:51.499Z,14.25
2019-03-27T22:23:22.841Z,14.38
2019-03-27T22:25:55.109Z,14.73
2019-03-27T22:28:26.417Z,14.15
2019-03-27T22:30:57.736Z,14.47
2019-03-27T22:33:29.045Z,13.95
2019-03-27T22:36:00.422Z,14.50
2019-03-27T22:38:31.835Z,13.95
2019-03-27T22:41:03.123Z,14.33
2019-03-27T22:43:34.435Z,14.70
2019-03-27T22:46:05.824Z,14.50
2019-03-27T22:48:37.146Z,14.55
2019-03-27T22:51:08.543Z,14.38
2019-03-27T22:53:39.953Z,14.60
2019-03-27T22:56:11.867Z,14.47
2019-03-27T22:58:43.614Z,15.68
2019-03-27T23:01:14.977Z,14.80
2019-03-27T23:03:48.009Z,15.10
2019-03-27T23:06:19.273Z,15.50
2019-03-27T23:08:51.102Z,15.10
2019-03-27T23:11:22.394Z,15.40
2019-03-27T23:13:54.202Z,15.00
2019-03-27T23:16:25.500Z,14.70
2019-03-27T23:18:56.852Z,14.65
2019-03-27T23:21:28.117Z,15.90
2019-03-27T23:23:59.509Z,15.35
2019-03-27T23:26:30.816Z,15.20
2019-03-27T23:29:02.122Z,15.98
2019-03-27T23:31:33.582Z,15.53
2019-03-27T23:34:05.029Z,15.65
2019-03-27T23:36:36.284Z,15.00
2019-03-27T23:39:09.411Z,15.05
2019-03-27T23:41:41.056Z,15.43
2019-03-27T23:44:12.519Z,15.55
2019-03-27T23:46:44.872Z,15.63
2019-03-27T23:49:16.172Z,15.90
2019-03-27T23:51:47.546Z,15.35
2019-03-27T23:54:18.860Z,15.78
2019-03-27T23:56:50.217Z,15.87
2019-03-27T23:59:21.544Z,15.85
